Time;durP1;ratioP1;P1;durP2;ratioP2;P2;SDS_P1;SDS_P2;PMS_P1;PMS_P2;Temp;Humidity;BMP_temperature;BMP_pressure;BME280_temperature;BME280_humidity;BME280_pressure;Samples;Min_cycle;Max_cycle;Signal;HPM_P1;HPM_P2
2022/01/19 00:00:37;;;;;;;54.90;18.17;;;6.30;99.90;;;;;;5110921;28;20044;-81
2022/01/19 00:03:03;;;;;;;43.50;16.67;;;6.30;99.90;;;;;;5076486;28;20048;-82
2022/01/19 00:05:28;;;;;;;46.35;17.90;;;6.20;99.90;;;;;;5076615;28;20114;-82
2022/01/19 00:07:54;;;;;;;47.30;18.33;;;6.30;99.90;;;;;;5076478;28;20090;-82
2022/01/19 00:10:27;;;;;;;41.78;15.52;;;6.20;99.90;;;;;;5076208;28;20056;-82
2022/01/19 00:12:56;;;;;;;56.63;17.75;;;6.20;99.90;;;;;;5060416;28;20480;-82
2022/01/19 00:15:23;;;;;;;46.53;16.17;;;6.10;99.90;;;;;;5076992;28;20051;-82
2022/01/19 00:17:54;;;;;;;60.72;18.80;;;6.20;99.90;;;;;;5075528;28;20050;-82
2022/01/19 00:20:21;;;;;;;67.28;19.15;;;6.20;99.90;;;;;;5075630;28;20480;-82
2022/01/19 00:22:46;;;;;;;69.10;19.75;;;6.00;99.90;;;;;;5058998;28;20174;-82
2022/01/19 00:25:12;;;;;;;72.28;19.85;;;6.00;99.90;;;;;;5075867;28;20127;-82
2022/01/19 00:27:38;;;;;;;64.93;20.52;;;6.10;99.90;;;;;;5076283;28;20135;-82
2022/01/19 00:30:05;;;;;;;66.18;20.35;;;6.00;99.90;;;;;;5092637;28;20060;-82
2022/01/19 00:32:31;;;;;;;72.72;20.98;;;6.10;99.90;;;;;;5074441;28;20403;-82
2022/01/19 00:34:56;;;;;;;73.55;19.90;;;6.20;99.90;;;;;;5109300;28;20052;-83
2022/01/19 00:37:23;;;;;;;74.53;21.08;;;6.30;99.90;;;;;;5075578;28;20044;-82
2022/01/19 00:39:49;;;;;;;83.20;22.23;;;6.20;99.90;;;;;;5075647;28;20114;-82
2022/01/19 00:42:14;;;;;;;70.53;20.35;;;6.20;99.90;;;;;;5075725;28;20052;-82
2022/01/19 00:44:40;;;;;;;85.88;23.75;;;6.20;99.90;;;;;;5075639;28;20048;-82
2022/01/19 00:47:06;;;;;;;91.10;22.75;;;6.20;99.90;;;;;;5091282;28;20127;-82
2022/01/19 00:49:32;;;;;;;93.38;24.75;;;6.30;99.90;;;;;;5075149;28;20044;-82
2022/01/19 00:51:58;;;;;;;81.30;23.55;;;6.20;99.90;;;;;;5074887;28;20453;-82
2022/01/19 00:54:23;;;;;;;87.90;26.00;;;6.20;99.90;;;;;;5057991;28;20040;-82
2022/01/19 00:56:49;;;;;;;79.43;23.67;;;6.20;99.90;;;;;;5075486;28;20092;-82
2022/01/19 00:59:15;;;;;;;75.32;20.88;;;6.10;99.90;;;;;;5074983;28;20411;-82
2022/01/19 01:01:40;;;;;;;72.15;20.13;;;6.20;99.90;;;;;;5074420;28;20056;-82
2022/01/19 01:04:06;;;;;;;82.28;22.90;;;6.10;99.90;;;;;;5074833;28;20109;-82
2022/01/19 01:06:32;;;;;;;59.03;20.67;;;6.10;99.90;;;;;;5075045;28;20041;-82
2022/01/19 01:08:58;;;;;;;82.80;22.88;;;6.10;99.90;;;;;;5058175;28;20089;-82
2022/01/19 01:11:29;;;;;;;86.85;22.98;;;6.30;99.90;;;;;;5074580;28;20056;-82
2022/01/19 01:18:56;;;;;;;72.03;22.75;;;6.20;99.90;;;;;;5074163;28;20048;-82
2022/01/19 01:21:22;;;;;;;65.70;21.20;;;6.30;99.90;;;;;;5108131;28;20098;-82
2022/01/19 01:23:48;;;;;;;90.97;26.23;;;6.20;99.90;;;;;;5074439;28;20476;-82
2022/01/19 01:26:13;;;;;;;78.93;25.25;;;6.30;99.90;;;;;;5074330;28;20102;-82
2022/01/19 01:28:39;;;;;;;75.82;24.08;;;6.20;99.90;;;;;;5074296;28;20037;-82
2022/01/19 01:31:07;;;;;;;82.05;24.25;;;6.20;99.90;;;;;;5091212;28;20044;-82
2022/01/19 01:33:33;;;;;;;76.18;22.70;;;5.90;99.90;;;;;;5091086;28;20053;-82
2022/01/19 01:35:59;;;;;;;93.35;25.98;;;6.20;99.90;;;;;;5074250;28;20048;-82
2022/01/19 01:38:25;;;;;;;67.60;23.38;;;6.30;99.90;;;;;;5074160;28;20071;-82
2022/01/19 01:40:51;;;;;;;79.25;24.92;;;6.40;99.90;;;;;;5074012;28;20430;-82
2022/01/19 01:43:17;;;;;;;67.50;22.98;;;6.50;99.90;;;;;;5108616;28;20048;-82
2022/01/19 01:45:46;;;;;;;71.75;23.50;;;6.60;99.90;;;;;;5073638;28;20050;-82
2022/01/19 01:48:17;;;;;;;81.18;24.92;;;6.50;99.90;;;;;;5091182;28;20060;-82
2022/01/19 01:53:29;;;;;;;71.13;23.35;;;6.20;99.90;;;;;;5074082;28;20518;-82
2022/01/19 01:55:57;;;;;;;91.15;25.85;;;6.10;99.90;;;;;;5073968;28;20056;-82
2022/01/19 01:58:24;;;;;;;83.55;25.73;;;6.30;99.90;;;;;;5073689;28;20241;-82
2022/01/19 02:00:49;;;;;;;87.93;25.55;;;6.30;99.90;;;;;;5073396;28;20432;-82
2022/01/19 02:03:15;;;;;;;74.22;25.88;;;6.40;99.90;;;;;;5056564;28;20110;-82
2022/01/19 02:05:54;;;;;;;75.13;24.98;;;6.40;99.90;;;;;;5040733;28;20076;-82
2022/01/19 02:08:22;;;;;;;96.88;27.95;;;6.50;99.90;;;;;;5073767;28;20403;-82
2022/01/19 02:16:28;;;;;;;84.97;25.92;;;6.30;99.90;;;;;;5073962;28;20052;-82
2022/01/19 02:24:15;;;;;;;107.50;30.42;;;6.50;99.90;;;;;;5073199;28;20091;-82
2022/01/19 02:26:57;;;;;;;107.07;30.55;;;6.50;99.90;;;;;;5073283;28;20040;-82
2022/01/19 02:40:23;;;;;;;106.10;28.85;;;6.30;99.90;;;;;;5073201;28;20051;-82
2022/01/19 02:50:40;;;;;;;118.45;30.52;;;6.50;99.90;;;;;;5073586;28;20048;-82
2022/01/19 02:53:06;;;;;;;108.05;29.70;;;6.50;99.90;;;;;;5073343;28;20040;-82
2022/01/19 02:55:34;;;;;;;105.85;30.58;;;6.50;99.90;;;;;;5089175;28;20392;-82
2022/01/19 02:58:00;;;;;;;113.78;28.65;;;6.40;99.90;;;;;;5073202;28;20127;-82
2022/01/19 03:08:46;;;;;;;117.78;29.10;;;6.40;99.90;;;;;;5073154;28;20166;-82
2022/01/19 03:11:16;;;;;;;96.40;27.10;;;6.40;99.90;;;;;;5072830;28;20053;-82
2022/01/19 03:13:44;;;;;;;96.38;26.70;;;6.30;99.90;;;;;;5072399;28;20484;-82
2022/01/19 03:16:09;;;;;;;120.10;28.92;;;6.00;99.90;;;;;;5072401;28;20044;-82
2022/01/19 03:18:35;;;;;;;98.60;27.05;;;6.20;99.90;;;;;;5072169;28;20067;-82
2022/01/19 03:21:01;;;;;;;106.03;28.02;;;6.20;99.90;;;;;;5072380;28;20123;-82
2022/01/19 03:23:26;;;;;;;109.00;28.70;;;6.30;99.90;;;;;;5055877;28;20090;-82
2022/01/19 03:25:54;;;;;;;110.55;27.20;;;6.30;99.90;;;;;;5072796;28;20459;-82
2022/01/19 03:28:19;;;;;;;105.63;27.45;;;6.30;99.90;;;;;;5073001;28;20048;-82
2022/01/19 03:30:46;;;;;;;96.28;26.95;;;6.40;99.90;;;;;;5072498;28;20051;-82
2022/01/19 03:33:12;;;;;;;90.10;25.58;;;6.30;99.90;;;;;;5072390;28;20533;-82
2022/01/19 03:35:38;;;;;;;94.18;26.63;;;6.10;99.90;;;;;;5072520;28;20040;-82
2022/01/19 03:38:08;;;;;;;94.28;25.88;;;6.00;99.90;;;;;;5072321;28;20106;-82
2022/01/19 03:40:35;;;;;;;88.22;25.67;;;6.00;99.90;;;;;;5072315;28;20079;-82
2022/01/19 03:43:02;;;;;;;83.97;27.80;;;6.00;99.90;;;;;;5055837;28;20119;-82
2022/01/19 03:45:28;;;;;;;95.10;26.80;;;5.80;99.90;;;;;;5072356;28;20126;-82
2022/01/19 03:50:37;;;;;;;91.72;27.15;;;6.00;99.90;;;;;;5058070;28;20509;-82
2022/01/19 03:53:03;;;;;;;82.72;26.83;;;6.00;99.90;;;;;;5072467;28;20079;-82
2022/01/19 03:55:29;;;;;;;110.53;30.13;;;5.90;99.90;;;;;;5106857;28;20395;-82
2022/01/19 03:57:54;;;;;;;117.07;30.95;;;6.00;99.90;;;;;;5071836;28;20041;-82
2022/01/19 04:00:21;;;;;;;110.30;30.38;;;6.10;99.90;;;;;;5072106;28;20044;-83
2022/01/19 04:02:48;;;;;;;87.55;27.17;;;6.00;99.90;;;;;;5071495;28;20080;-82
2022/01/19 04:05:21;;;;;;;123.00;31.88;;;5.90;99.90;;;;;;5072136;28;20095;-82
2022/01/19 04:07:47;;;;;;;113.43;30.77;;;5.90;99.90;;;;;;5073721;28;20060;-82
2022/01/19 04:10:13;;;;;;;116.78;30.60;;;5.80;99.90;;;;;;5075746;28;20044;-82
2022/01/19 04:12:55;;;;;;;127.55;32.65;;;5.80;99.90;;;;;;5092447;28;20040;-82
2022/01/19 04:15:21;;;;;;;115.65;31.88;;;5.70;99.90;;;;;;5075633;28;20041;-83
2022/01/19 04:17:53;;;;;;;106.93;33.17;;;5.80;99.90;;;;;;5058574;28;20102;-82
2022/01/19 04:20:23;;;;;;;114.53;33.70;;;5.80;99.90;;;;;;5059379;28;20537;-82
2022/01/19 04:22:49;;;;;;;116.65;34.60;;;5.70;99.90;;;;;;5109609;28;20071;-82
2022/01/19 04:25:15;;;;;;;106.22;33.20;;;5.60;99.90;;;;;;5075744;28;20484;-82
2022/01/19 04:27:42;;;;;;;111.05;32.17;;;5.60;99.90;;;;;;5092870;28;20044;-82
2022/01/19 04:30:12;;;;;;;125.10;34.45;;;5.70;99.90;;;;;;5059293;28;20094;-82
2022/01/19 04:35:26;;;;;;;136.70;38.00;;;5.60;99.90;;;;;;5075363;28;20136;-82
2022/01/19 04:46:11;;;;;;;122.00;34.20;;;5.80;99.90;;;;;;5075284;28;20052;-82
2022/01/19 05:07:40;;;;;;;117.45;34.13;;;5.90;99.90;;;;;;5074716;28;20088;-82
2022/01/19 05:15:34;;;;;;;103.78;30.58;;;6.00;99.90;;;;;;5075180;28;20137;-82
2022/01/19 05:18:02;;;;;;;110.55;33.60;;;5.90;99.90;;;;;;5024965;28;20098;-82
2022/01/19 05:20:28;;;;;;;102.55;31.77;;;6.00;99.90;;;;;;5074059;28;20051;-82
2022/01/19 05:22:54;;;;;;;110.15;33.97;;;6.00;99.90;;;;;;5074436;28;20115;-82
2022/01/19 05:25:19;;;;;;;116.40;34.30;;;5.90;99.90;;;;;;5108353;28;20045;-82
2022/01/19 05:27:45;;;;;;;99.90;30.92;;;5.80;99.90;;;;;;5074311;28;20052;-82
2022/01/19 05:30:12;;;;;;;99.30;31.05;;;5.80;99.90;;;;;;5057632;28;20045;-82
2022/01/19 05:32:37;;;;;;;95.20;29.95;;;5.90;99.90;;;;;;5074044;28;20045;-82
2022/01/19 05:35:03;;;;;;;106.22;32.08;;;5.90;99.90;;;;;;5091235;28;20058;-82
2022/01/19 05:37:30;;;;;;;108.03;32.58;;;6.10;99.90;;;;;;5057546;28;20040;-82
2022/01/19 05:39:55;;;;;;;95.82;31.75;;;6.10;99.90;;;;;;5074128;28;20083;-82
2022/01/19 05:42:22;;;;;;;97.28;32.05;;;6.20;99.90;;;;;;5057486;28;20080;-82
2022/01/19 05:44:48;;;;;;;86.05;30.00;;;6.20;99.90;;;;;;5074019;28;20053;-82
2022/01/19 05:47:14;;;;;;;93.45;30.92;;;6.10;99.90;;;;;;5073680;28;20051;-82
2022/01/19 05:49:43;;;;;;;85.75;29.33;;;6.30;99.90;;;;;;5057269;28;20052;-82
2022/01/19 05:52:10;;;;;;;90.53;29.60;;;6.30;99.90;;;;;;5073689;28;20044;-82
2022/01/19 05:54:36;;;;;;;76.00;27.75;;;6.40;99.90;;;;;;5090948;28;20214;-82
2022/01/19 05:57:02;;;;;;;85.07;28.92;;;6.50;99.90;;;;;;5057083;28;20437;-82
2022/01/19 05:59:28;;;;;;;69.78;26.58;;;6.60;99.90;;;;;;5090691;28;20139;-82
2022/01/19 06:01:55;;;;;;;102.28;30.60;;;6.60;99.90;;;;;;5056563;28;20056;-82
2022/01/19 06:04:22;;;;;;;84.28;28.70;;;6.60;99.90;;;;;;5057343;28;20440;-82
2022/01/19 06:06:50;;;;;;;87.20;30.40;;;6.50;99.90;;;;;;5073730;28;20389;-82
2022/01/19 06:12:07;;;;;;;80.32;27.20;;;6.50;99.90;;;;;;5073067;28;20055;-82
2022/01/19 06:14:34;;;;;;;88.43;29.75;;;6.50;99.90;;;;;;5073446;28;20097;-82
2022/01/19 06:17:00;;;;;;;71.55;27.25;;;6.40;99.90;;;;;;5073699;28;20156;-82
2022/01/19 06:19:26;;;;;;;68.18;27.45;;;6.40;99.90;;;;;;5073100;28;20154;-82
2022/01/19 06:21:52;;;;;;;70.97;26.73;;;6.40;99.90;;;;;;5056674;28;20055;-82
2022/01/19 06:24:18;;;;;;;64.85;26.70;;;6.40;99.90;;;;;;5056630;28;20036;-82
2022/01/19 06:26:44;;;;;;;73.28;25.75;;;6.50;99.90;;;;;;5073281;28;20049;-82
2022/01/19 06:29:10;;;;;;;82.45;27.95;;;6.40;99.90;;;;;;5040073;28;20075;-82
2022/01/19 06:31:35;;;;;;;68.97;25.50;;;6.40;99.90;;;;;;5090138;28;20047;-82
2022/01/19 06:34:01;;;;;;;77.65;27.95;;;6.50;99.90;;;;;;5072824;28;20052;-82
2022/01/19 06:36:27;;;;;;;80.50;28.23;;;6.40;99.90;;;;;;5056402;28;20045;-82
2022/01/19 06:38:53;;;;;;;65.78;25.98;;;6.50;99.90;;;;;;5073030;28;20454;-82
2022/01/19 06:41:19;;;;;;;61.33;25.38;;;6.50;99.90;;;;;;5073093;28;20479;-82
2022/01/19 06:43:45;;;;;;;64.03;25.52;;;6.40;99.90;;;;;;5056371;28;20132;-82
2022/01/19 06:46:11;;;;;;;73.22;26.58;;;6.30;99.90;;;;;;5056266;28;20574;-82
2022/01/19 06:48:37;;;;;;;63.60;26.00;;;6.40;99.90;;;;;;5039561;28;20131;-82
2022/01/19 06:51:02;;;;;;;63.60;24.60;;;6.50;99.90;;;;;;5072549;28;20047;-82
2022/01/19 06:53:28;;;;;;;65.15;25.70;;;6.50;99.90;;;;;;5089916;28;20045;-82
2022/01/19 06:55:57;;;;;;;73.32;27.05;;;6.60;99.90;;;;;;5089679;28;20118;-83
2022/01/19 06:58:27;;;;;;;68.18;25.98;;;6.60;99.90;;;;;;5073062;28;20088;-82
2022/01/19 07:00:53;;;;;;;71.25;26.77;;;6.70;99.90;;;;;;5072419;28;20048;-82
2022/01/19 07:03:19;;;;;;;70.35;26.85;;;6.70;99.90;;;;;;5072564;28;20403;-82
2022/01/19 07:05:46;;;;;;;88.78;29.65;;;6.80;99.90;;;;;;5056128;28;20053;-82
2022/01/19 07:08:11;;;;;;;82.25;28.27;;;6.70;99.90;;;;;;5072718;28;20052;-82
2022/01/19 07:10:37;;;;;;;74.22;27.98;;;6.60;99.90;;;;;;5072747;28;20052;-82
2022/01/19 07:13:04;;;;;;;86.32;28.92;;;6.60;99.90;;;;;;5072388;28;20112;-83
2022/01/19 07:15:31;;;;;;;82.13;28.83;;;6.50;99.90;;;;;;5089281;28;20502;-83
2022/01/19 07:17:57;;;;;;;81.68;30.08;;;6.50;99.90;;;;;;5072160;28;20065;-83
2022/01/19 07:20:23;;;;;;;91.40;29.77;;;6.60;99.90;;;;;;5106431;28;20475;-82
2022/01/19 07:22:48;;;;;;;92.43;31.15;;;6.70;99.90;;;;;;5072912;28;20059;-82
2022/01/19 07:25:16;;;;;;;83.15;28.77;;;6.60;99.90;;;;;;5072562;28;20515;-83
2022/01/19 07:27:41;;;;;;;85.65;28.98;;;6.60;99.90;;;;;;5073033;28;20056;-83
2022/01/19 07:30:09;;;;;;;86.93;30.20;;;6.60;99.90;;;;;;5072419;28;20055;-83
2022/01/19 07:32:35;;;;;;;80.72;27.73;;;6.70;99.90;;;;;;5089118;28;20087;-83
2022/01/19 07:35:02;;;;;;;73.20;26.27;;;6.60;99.90;;;;;;5072489;28;20086;-83
2022/01/19 07:37:28;;;;;;;77.82;27.85;;;6.60;99.90;;;;;;5072422;28;20075;-83
2022/01/19 07:39:54;;;;;;;67.53;25.85;;;6.70;99.90;;;;;;5072317;28;20048;-83
2022/01/19 07:42:20;;;;;;;70.82;27.33;;;6.80;99.90;;;;;;5073290;28;20139;-83
2022/01/19 07:44:46;;;;;;;73.63;26.23;;;6.90;99.90;;;;;;5076807;28;20044;-83
2022/01/19 07:47:12;;;;;;;69.50;26.42;;;6.80;99.90;;;;;;5075841;28;20036;-83
2022/01/19 07:49:38;;;;;;;64.22;25.60;;;6.60;99.90;;;;;;5076288;28;20049;-82
2022/01/19 07:52:04;;;;;;;61.92;25.73;;;6.60;99.90;;;;;;5075976;28;20078;-74
2022/01/19 07:54:29;;;;;;;64.72;25.77;;;6.60;99.90;;;;;;5076101;28;20044;-77
2022/01/19 07:56:55;;;;;;;72.18;27.48;;;6.60;99.90;;;;;;5059802;28;20048;-77
2022/01/19 07:59:21;;;;;;;65.57;24.20;;;6.70;99.90;;;;;;5076073;28;20078;-74
2022/01/19 08:01:47;;;;;;;71.68;27.48;;;6.60;99.90;;;;;;5076250;28;20056;-76
2022/01/19 08:04:13;;;;;;;70.55;27.40;;;6.40;99.90;;;;;;5075785;28;20056;-76
2022/01/19 08:06:39;;;;;;;68.20;27.20;;;6.30;99.90;;;;;;5059388;28;20045;-76
2022/01/19 08:09:05;;;;;;;71.78;27.08;;;6.30;99.90;;;;;;5075822;28;20545;-77
2022/01/19 08:11:31;;;;;;;76.38;28.55;;;6.40;99.90;;;;;;5075735;28;20053;-76
2022/01/19 08:13:56;;;;;;;68.55;26.92;;;6.30;99.90;;;;;;5075439;28;20047;-77
2022/01/19 08:16:22;;;;;;;66.00;26.08;;;6.20;99.90;;;;;;5075673;28;20052;-78
2022/01/19 08:18:48;;;;;;;76.85;28.88;;;6.00;99.90;;;;;;5076292;28;20084;-77
2022/01/19 08:21:14;;;;;;;69.15;27.80;;;6.10;99.90;;;;;;5092686;28;20044;-77
2022/01/19 08:23:40;;;;;;;75.78;27.48;;;6.20;99.90;;;;;;5075549;28;20044;-78
2022/01/19 08:26:06;;;;;;;71.90;27.38;;;6.10;99.90;;;;;;5076535;28;20054;-77
2022/01/19 08:28:32;;;;;;;79.85;29.55;;;6.10;99.90;;;;;;5075404;28;20045;-77
2022/01/19 08:30:58;;;;;;;72.00;28.92;;;6.10;99.90;;;;;;5094744;28;20068;-76
2022/01/19 08:33:23;;;;;;;84.75;30.45;;;6.20;99.90;;;;;;5081870;28;20499;-78
2022/01/19 08:35:51;;;;;;;77.22;28.02;;;6.10;99.90;;;;;;5076978;28;20049;-75
2022/01/19 08:38:17;;;;;;;90.35;31.13;;;6.20;99.90;;;;;;5075363;28;20048;-73
2022/01/19 08:40:43;;;;;;;91.75;31.88;;;6.20;99.90;;;;;;5075658;28;20087;-73
2022/01/19 08:43:09;;;;;;;87.65;31.45;;;6.30;99.90;;;;;;5075381;28;20138;-73
2022/01/19 08:45:35;;;;;;;75.90;29.02;;;6.40;99.90;;;;;;5075369;28;20059;-76
2022/01/19 08:48:01;;;;;;;91.72;30.17;;;6.30;99.90;;;;;;5074757;28;20052;-74
2022/01/19 08:50:27;;;;;;;76.05;29.65;;;6.40;99.90;;;;;;5075050;28;20052;-74
2022/01/19 08:52:53;;;;;;;85.50;31.80;;;6.30;99.90;;;;;;5074745;28;20483;-73
2022/01/19 08:55:18;;;;;;;83.15;32.05;;;6.40;99.90;;;;;;5073922;28;20518;-73
2022/01/19 08:57:46;;;;;;;84.60;32.03;;;6.50;99.90;;;;;;5092067;28;20076;-74
2022/01/19 09:00:15;;;;;;;81.70;30.30;;;6.60;99.90;;;;;;5075511;28;20045;-74
2022/01/19 09:02:41;;;;;;;88.25;32.30;;;6.60;99.90;;;;;;5075728;28;20056;-74
2022/01/19 09:05:08;;;;;;;80.30;29.13;;;6.60;99.90;;;;;;5075699;28;20495;-74
2022/01/19 09:07:34;;;;;;;78.72;29.15;;;6.70;99.90;;;;;;5075058;28;20076;-74
2022/01/19 09:10:00;;;;;;;80.60;31.08;;;6.50;99.90;;;;;;5091704;28;20107;-74
2022/01/19 09:12:25;;;;;;;75.10;31.05;;;6.40;99.90;;;;;;5074668;28;20041;-73
2022/01/19 09:14:51;;;;;;;79.22;29.83;;;6.40;99.90;;;;;;5074759;28;20422;-73
2022/01/19 09:17:17;;;;;;;77.28;29.85;;;6.50;99.90;;;;;;5074776;28;20577;-74
2022/01/19 09:19:43;;;;;;;82.38;28.30;;;6.30;99.90;;;;;;5075493;28;20102;-74
2022/01/19 09:22:10;;;;;;;78.15;29.73;;;6.20;99.90;;;;;;5074435;28;20040;-74
2022/01/19 09:24:38;;;;;;;71.80;29.38;;;6.20;99.90;;;;;;5074392;28;20476;-73
2022/01/19 09:27:04;;;;;;;70.22;28.92;;;6.20;99.90;;;;;;5074387;28;20135;-73
2022/01/19 09:29:30;;;;;;;83.35;30.83;;;6.40;99.90;;;;;;5091187;28;20092;-74
2022/01/19 09:31:59;;;;;;;70.63;29.05;;;6.40;99.90;;;;;;5075561;28;20080;-74
2022/01/19 09:34:25;;;;;;;70.50;24.30;;;6.50;99.90;;;;;;5074655;28;20054;-77
2022/01/19 09:36:51;;;;;;;78.65;28.80;;;6.80;99.90;;;;;;5074261;28;20052;-73
2022/01/19 09:39:18;;;;;;;75.03;29.88;;;7.00;99.90;;;;;;5075542;28;20055;-73
2022/01/19 09:41:46;;;;;;;85.18;30.23;;;7.00;99.90;;;;;;5074014;28;20052;-74
2022/01/19 09:44:12;;;;;;;77.00;28.55;;;6.90;99.90;;;;;;5074543;28;20392;-74
2022/01/19 09:46:38;;;;;;;89.13;31.38;;;6.70;99.90;;;;;;5074974;28;20054;-74
2022/01/19 09:49:08;;;;;;;86.30;31.55;;;6.80;99.90;;;;;;5073471;28;20055;-74
2022/01/19 09:51:34;;;;;;;80.30;29.27;;;6.60;99.90;;;;;;5073882;28;20105;-74
2022/01/19 09:54:01;;;;;;;75.40;29.05;;;6.60;99.90;;;;;;5073551;28;20044;-74
2022/01/19 09:56:26;;;;;;;74.07;29.05;;;6.60;99.90;;;;;;5090939;28;20059;-74
2022/01/19 09:58:52;;;;;;;74.32;31.20;;;6.50;99.90;;;;;;5073911;28;20044;-76
2022/01/19 10:01:20;;;;;;;71.70;30.33;;;6.40;99.90;;;;;;5073463;28;20048;-73
2022/01/19 10:03:46;;;;;;;74.57;29.52;;;6.50;99.90;;;;;;5074586;28;20135;-74
2022/01/19 10:06:17;;;;;;;73.35;30.15;;;6.50;99.90;;;;;;5056766;28;20045;-74
2022/01/19 10:08:54;;;;;;;73.90;28.73;;;6.50;99.90;;;;;;5073451;28;20059;-74
2022/01/19 10:17:00;;;;;;;83.15;30.92;;;6.70;99.90;;;;;;5073444;28;20060;-74
2022/01/19 10:19:42;;;;;;;84.90;32.90;;;6.70;99.90;;;;;;5073149;28;20133;-74
2022/01/19 10:22:10;;;;;;;75.38;30.92;;;6.60;99.90;;;;;;5073245;28;20059;-74
2022/01/19 10:24:47;;;;;;;79.55;32.70;;;6.60;99.90;;;;;;5074421;28;20094;-74
2022/01/19 10:27:25;;;;;;;;;;;6.60;99.90;;;;;;5073846;28;20056;-74
2022/01/19 10:29:55;;;;;;;91.97;33.80;;;6.70;99.90;;;;;;5073221;28;19921;-74
2022/01/19 10:32:23;;;;;;;83.50;33.85;;;6.70;99.90;;;;;;5073134;28;20411;-74
2022/01/19 10:34:50;;;;;;;95.30;36.22;;;6.70;99.90;;;;;;5073362;28;20056;-74
2022/01/19 10:37:23;;;;;;;91.78;35.45;;;6.70;99.90;;;;;;5073138;28;20051;-74
2022/01/19 10:39:50;;;;;;;91.63;36.28;;;6.70;99.90;;;;;;5073055;28;20048;-73
2022/01/19 10:42:21;;;;;;;87.70;36.33;;;6.70;99.90;;;;;;5072870;28;20052;-74
2022/01/19 10:44:54;;;;;;;98.65;38.78;;;6.70;99.90;;;;;;5074344;28;20106;-73
2022/01/19 10:47:39;;;;;;;96.13;37.90;;;6.70;99.90;;;;;;5073176;28;20136;-74
2022/01/19 10:50:06;;;;;;;85.85;32.95;;;6.60;99.90;;;;;;5073079;28;20542;-81
2022/01/19 10:52:36;;;;;;;92.65;34.00;;;6.60;99.90;;;;;;5055999;28;20395;-78
2022/01/19 10:55:05;;;;;;;79.40;33.28;;;6.60;99.90;;;;;;5072829;28;20135;-79
2022/01/19 10:57:33;;;;;;;98.05;36.33;;;6.40;99.90;;;;;;5106825;28;20056;-81
2022/01/19 11:00:11;;;;;;;89.20;36.17;;;6.80;99.90;;;;;;5072825;28;20545;-81
2022/01/19 11:02:37;;;;;;;75.70;32.45;;;7.00;99.90;;;;;;5089476;28;20135;-80
2022/01/19 11:05:04;;;;;;;76.05;31.60;;;7.00;99.90;;;;;;5056626;28;20119;-80
2022/01/19 11:07:29;;;;;;;83.50;32.03;;;6.90;99.90;;;;;;5072520;28;20488;-80
2022/01/19 11:10:13;;;;;;;78.57;31.88;;;6.80;99.90;;;;;;5057850;28;20075;-80
2022/01/19 11:12:46;;;;;;;70.63;31.90;;;6.60;99.90;;;;;;5041903;28;20098;-72
2022/01/19 11:15:18;;;;;;;91.65;37.78;;;6.60;99.90;;;;;;5072651;28;20071;-74
2022/01/19 11:17:45;;;;;;;90.13;36.13;;;6.70;99.90;;;;;;5072357;28;20361;-74
2022/01/19 11:20:17;;;;;;;89.82;36.65;;;6.60;99.90;;;;;;5072487;28;20040;-74
2022/01/19 11:23:28;;;;;;;103.80;39.17;;;6.70;99.90;;;;;;5073470;28;20062;-74
2022/01/19 11:25:57;;;;;;;100.65;39.45;;;6.80;99.90;;;;;;5064439;28;20131;-73
2022/01/19 11:28:39;;;;;;;100.22;39.33;;;6.60;99.90;;;;;;5072509;28;20067;-74
2022/01/19 11:31:30;;;;;;;90.45;38.75;;;6.60;99.90;;;;;;5073506;28;20044;-74
2022/01/19 11:33:58;;;;;;;106.95;40.88;;;6.50;99.90;;;;;;5069728;28;20365;-74
2022/01/19 11:36:34;;;;;;;100.55;39.20;;;6.60;99.90;;;;;;5072393;28;20484;-74
2022/01/19 11:39:05;;;;;;;101.80;41.45;;;6.60;99.90;;;;;;5073450;28;20101;-74
2022/01/19 11:41:54;;;;;;;95.63;40.55;;;6.70;99.90;;;;;;5089205;28;20487;-74
2022/01/19 11:44:32;;;;;;;100.45;41.63;;;6.70;99.90;;;;;;5073321;28;20044;-74
2022/01/19 11:47:16;;;;;;;99.07;40.42;;;6.70;99.90;;;;;;5072647;28;20056;-74
2022/01/19 11:50:03;;;;;;;109.43;42.72;;;6.80;99.90;;;;;;5071816;28;20080;-74
2022/01/19 11:52:33;;;;;;;;;;;6.70;99.90;;;;;;5072697;28;20048;-77
2022/01/19 11:55:30;;;;;;;93.72;39.33;;;6.80;99.90;;;;;;5074544;28;19921;-77
2022/01/19 11:58:20;;;;;;;95.18;39.15;;;6.70;99.90;;;;;;5061010;28;20139;-77
2022/01/19 12:00:49;;;;;;;120.65;46.90;;;6.80;99.90;;;;;;5072168;28;20131;-76
2022/01/19 12:03:26;;;;;;;104.70;40.00;;;6.90;99.90;;;;;;5071639;28;20527;-77
2022/01/19 12:05:54;;;;;;;98.30;39.85;;;7.10;99.90;;;;;;5071895;28;20452;-76
2022/01/19 12:08:33;;;;;;;101.50;40.42;;;7.10;99.90;;;;;;5072083;28;20083;-76
2022/01/19 12:11:14;;;;;;;109.88;40.58;;;6.90;99.90;;;;;;5071988;28;20040;-76
2022/01/19 12:14:12;;;;;;;97.75;40.28;;;7.00;99.90;;;;;;5055264;28;20059;-76
2022/01/19 12:19:10;;;;;;;95.75;38.15;;;6.80;99.90;;;;;;5071671;28;20052;-76
2022/01/19 12:22:22;;;;;;;109.95;41.10;;;6.90;99.90;;;;;;5071981;28;20119;-77
2022/01/19 12:25:02;;;;;;;101.13;37.78;;;6.90;99.90;;;;;;5087292;28;20057;-78
2022/01/19 12:27:34;;;;;;;101.80;40.63;;;6.90;99.90;;;;;;5070873;28;20135;-77
2022/01/19 12:30:05;;;;;;;115.30;39.78;;;6.80;99.90;;;;;;5075472;28;20368;-80
2022/01/19 12:32:48;;;;;;;99.65;38.97;;;6.70;99.90;;;;;;5075604;28;20084;-74
2022/01/19 12:35:18;;;;;;;108.45;39.05;;;6.70;99.90;;;;;;5074918;28;20083;-79
2022/01/19 12:37:54;;;;;;;96.57;37.45;;;6.70;99.90;;;;;;5075433;28;20529;-80
2022/01/19 12:40:29;;;;;;;94.20;36.38;;;6.70;99.90;;;;;;5081290;28;20371;-80
2022/01/19 12:43:31;;;;;;;85.28;34.38;;;6.80;99.90;;;;;;5075713;28;20483;-77
2022/01/19 12:45:58;;;;;;;95.40;37.47;;;6.90;99.90;;;;;;5109087;28;20502;-76
2022/01/19 12:48:37;;;;;;;92.57;36.25;;;6.90;99.90;;;;;;5074906;28;20052;-78
2022/01/19 12:51:03;;;;;;;86.65;34.50;;;6.80;99.90;;;;;;5075376;28;20047;-78
2022/01/19 12:53:29;;;;;;;97.28;35.28;;;6.80;99.90;;;;;;5075028;28;20044;-78
2022/01/19 12:56:13;;;;;;;92.45;33.95;;;6.60;99.90;;;;;;5092202;28;20054;-79
2022/01/19 12:58:39;;;;;;;86.30;33.60;;;6.70;99.90;;;;;;5059739;28;20123;-73
2022/01/19 13:01:10;;;;;;;93.65;34.78;;;6.60;99.90;;;;;;5074890;28;20049;-78
2022/01/19 13:03:40;;;;;;;86.43;32.95;;;6.90;99.90;;;;;;5074527;28;20063;-78
2022/01/19 13:06:09;;;;;;;91.57;33.95;;;6.90;99.90;;;;;;5074857;28;20083;-78
2022/01/19 13:08:37;;;;;;;100.03;38.22;;;6.90;99.90;;;;;;5074751;28;20055;-78
2022/01/19 13:11:41;;;;;;;88.85;33.45;;;7.00;99.90;;;;;;5074799;28;20049;-78
2022/01/19 13:14:12;;;;;;;86.68;33.13;;;6.90;99.90;;;;;;5059104;28;20067;-78
2022/01/19 13:16:47;;;;;;;87.60;34.55;;;6.90;99.90;;;;;;5074609;28;20110;-78
2022/01/19 13:19:19;;;;;;;86.78;33.40;;;6.90;99.90;;;;;;5074357;28;20442;-78
2022/01/19 13:21:51;;;;;;;86.03;34.15;;;6.90;99.90;;;;;;5075277;28;20040;-78
2022/01/19 13:24:25;;;;;;;96.65;35.80;;;6.90;99.90;;;;;;5074537;28;20251;-79
2022/01/19 13:26:54;;;;;;;92.93;33.10;;;6.80;99.90;;;;;;5074548;28;20045;-79
2022/01/19 13:29:36;;;;;;;88.78;32.85;;;6.80;99.90;;;;;;5074522;28;20131;-78
2022/01/19 13:32:31;;;;;;;93.97;33.22;;;6.80;99.90;;;;;;5074423;28;20063;-81
2022/01/19 13:35:09;;;;;;;81.57;31.67;;;6.90;99.90;;;;;;5075150;28;20059;-82
2022/01/19 13:37:45;;;;;;;92.22;34.92;;;6.80;99.90;;;;;;5091919;28;20048;-82
2022/01/19 13:40:16;;;;;;;80.88;31.63;;;6.90;99.90;;;;;;5090233;28;20149;-81
2022/01/19 13:42:47;;;;;;;82.13;31.98;;;7.10;99.90;;;;;;5081828;28;20059;-82
2022/01/19 13:45:27;;;;;;;86.63;33.45;;;7.10;99.90;;;;;;5071616;28;20044;-81
2022/01/19 13:50:45;;;;;;;85.53;34.10;;;7.10;99.90;;;;;;5107372;28;20063;-80
2022/01/19 13:53:13;;;;;;;87.97;34.53;;;7.00;99.90;;;;;;5056717;28;20040;-80
2022/01/19 13:55:40;;;;;;;86.07;35.33;;;7.00;99.90;;;;;;5040480;28;20055;-81
2022/01/19 13:58:14;;;;;;;105.65;39.90;;;6.90;99.90;;;;;;5040452;28;20041;-81
2022/01/19 14:00:52;;;;;;;103.75;38.13;;;6.70;99.90;;;;;;5092801;28;20548;-80
2022/01/19 14:03:20;;;;;;;113.68;38.88;;;6.70;99.90;;;;;;5093407;28;20055;-80
2022/01/19 14:05:51;;;;;;;103.28;37.70;;;6.70;99.90;;;;;;5076689;28;20054;-81
2022/01/19 14:08:33;;;;;;;110.28;39.60;;;6.70;99.90;;;;;;5077001;28;20058;-81
2022/01/19 14:11:00;;;;;;;110.07;38.33;;;6.70;99.90;;;;;;5093655;28;20525;-80
2022/01/19 14:13:33;;;;;;;107.18;38.38;;;6.50;99.90;;;;;;5059872;28;20082;-80
2022/01/19 14:16:35;;;;;;;113.53;39.45;;;6.50;99.90;;;;;;5093472;28;20050;-80
2022/01/19 14:19:40;;;;;;;116.32;40.65;;;6.50;99.90;;;;;;5078657;28;20041;-80
2022/01/19 14:22:13;;;;;;;129.57;40.55;;;6.50;99.90;;;;;;5072984;28;20045;-81
2022/01/19 14:24:44;;;;;;;129.40;39.17;;;6.50;99.90;;;;;;5056415;28;20052;-81